Time;durP1;ratioP1;P1;durP2;ratioP2;P2;SDS_P1;SDS_P2;PMS_P1;PMS_P2;Temp;Humidity;BMP_temperature;BMP_pressure;BME280_temperature;BME280_humidity;BME280_pressure;Samples;Min_cycle;Max_cycle;Signal;HPM_P1;HPM_P2
2023/01/03 00:01:16;;;;;;;5.60;3.08;;;;;;;10.23;67.35;102523.88;5102807;28;20048;-61
2023/01/03 00:03:43;;;;;;;6.25;2.38;;;;;;;10.22;67.47;102516.00;5103552;28;20052;-63
2023/01/03 00:06:16;;;;;;;8.90;2.90;;;;;;;10.20;67.32;102518.03;5100454;28;20048;-63
2023/01/03 00:08:44;;;;;;;7.82;2.85;;;;;;;10.13;67.40;102509.00;5105391;28;20411;-63
2023/01/03 00:11:12;;;;;;;7.82;3.38;;;;;;;10.19;67.42;102519.84;5095167;28;20556;-64
2023/01/03 00:13:39;;;;;;;5.82;2.88;;;;;;;10.18;67.31;102511.97;5104009;28;20429;-57
2023/01/03 00:16:16;;;;;;;8.10;3.15;;;;;;;10.16;67.49;102514.00;5103518;28;20043;-63
2023/01/03 00:18:44;;;;;;;;;;;;;;;10.13;67.43;102519.72;5102480;28;20052;-64
2023/01/03 00:21:12;;;;;;;9.40;4.22;;;;;;;10.13;67.45;102523.25;5105511;28;19951;-63
2023/01/03 00:23:40;;;;;;;8.68;3.22;;;;;;;10.12;67.40;102526.97;5100905;28;20121;-62
2023/01/03 00:26:09;;;;;;;8.88;3.53;;;;;;;10.13;67.26;102525.94;5103703;28;20585;-63
2023/01/03 00:28:38;;;;;;;8.52;3.00;;;;;;;10.11;67.35;102531.50;5091399;28;20063;-62
2023/01/03 00:31:07;;;;;;;6.32;2.95;;;;;;;10.10;67.17;102528.97;5104553;28;20115;-64
2023/01/03 00:33:37;;;;;;;7.38;3.22;;;;;;;10.08;67.31;102529.16;5102102;28;20107;-64
2023/01/03 00:36:07;;;;;;;9.60;3.83;;;;;;;10.07;67.22;102532.84;5100295;28;20044;-63
2023/01/03 00:38:36;;;;;;;8.60;2.92;;;;;;;10.06;67.48;102530.34;5103945;28;20066;-63
2023/01/03 00:41:05;;;;;;;5.75;3.42;;;;;;;10.06;67.26;102531.19;5104820;28;20213;-63
2023/01/03 00:43:34;;;;;;;7.78;2.72;;;;;;;10.05;67.42;102534.06;5102581;28;20100;-60
2023/01/03 00:46:02;;;;;;;5.97;2.95;;;;;;;10.03;67.38;102533.38;5102402;28;20063;-63
2023/01/03 00:48:30;;;;;;;12.65;3.75;;;;;;;10.02;66.97;102535.25;5104754;28;20048;-62
2023/01/03 00:51:05;;;;;;;8.13;3.55;;;;;;;10.01;67.09;102530.03;5104901;28;20051;-55
2023/01/03 00:53:33;;;;;;;6.13;2.90;;;;;;;9.99;67.17;102540.13;5097990;28;20075;-64
2023/01/03 00:56:05;;;;;;;8.50;3.85;;;;;;;9.98;67.35;102533.91;5104222;28;20130;-62
2023/01/03 00:58:33;;;;;;;6.90;2.80;;;;;;;9.95;67.00;102533.44;5104463;28;20055;-62
2023/01/03 01:01:05;;;;;;;5.70;2.90;;;;;;;9.95;67.18;102538.81;5100743;28;20055;-63
2023/01/03 01:03:33;;;;;;;8.85;3.15;;;;;;;9.92;67.16;102537.31;5103383;28;20071;-63
2023/01/03 01:06:10;;;;;;;7.40;3.20;;;;;;;9.92;66.78;102540.00;5098093;28;20089;-62
2023/01/03 01:08:38;;;;;;;7.30;3.88;;;;;;;9.92;66.91;102540.00;5104460;28;20136;-64
2023/01/03 01:11:06;;;;;;;6.45;2.95;;;;;;;9.91;67.29;102550.91;5103805;28;20071;-63
2023/01/03 01:13:35;;;;;;;4.53;2.63;;;;;;;9.90;67.12;102543.88;5103647;28;20094;-58
2023/01/03 01:16:04;;;;;;;7.90;4.18;;;;;;;9.89;66.98;102545.72;5100559;28;20065;-63
2023/01/03 01:18:33;;;;;;;12.45;3.58;;;;;;;9.87;67.10;102547.75;5102328;28;20056;-64
2023/01/03 01:21:04;;;;;;;7.10;2.97;;;;;;;9.86;67.15;102551.44;5103132;28;20508;-64
2023/01/03 01:23:32;;;;;;;9.38;3.70;;;;;;;9.86;66.73;102558.66;5097639;28;20066;-64
2023/01/03 01:26:00;;;;;;;6.72;3.30;;;;;;;9.86;66.76;102556.81;5102283;28;20112;-64
2023/01/03 01:28:28;;;;;;;6.65;3.30;;;;;;;9.84;67.10;102560.69;5098528;28;20052;-64
2023/01/03 01:30:58;;;;;;;6.15;3.45;;;;;;;9.83;66.96;102557.16;5103186;28;20530;-64
2023/01/03 01:33:26;;;;;;;6.22;3.20;;;;;;;9.84;67.13;102560.69;5103341;28;20044;-64
2023/01/03 01:35:54;;;;;;;7.10;3.35;;;;;;;9.83;66.92;102565.22;5104379;28;20075;-63
2023/01/03 01:38:23;;;;;;;8.38;3.30;;;;;;;9.81;66.78;102564.56;5103252;28;20052;-58
2023/01/03 01:40:51;;;;;;;6.63;3.20;;;;;;;9.79;66.74;102562.03;5104454;28;20141;-63
2023/01/03 01:46:15;;;;;;;9.32;3.88;;;;;;;9.68;66.82;102557.06;5102725;28;20055;-62
2023/01/03 01:48:44;;;;;;;6.88;3.42;;;;;;;9.76;66.26;102581.19;5103412;28;20048;-63
2023/01/03 01:51:12;;;;;;;9.60;3.40;;;;;;;9.75;66.57;102584.03;5095648;28;20054;-62
2023/01/03 01:53:43;;;;;;;8.32;3.85;;;;;;;9.73;66.17;102581.53;5104174;28;20044;-63
2023/01/03 01:56:17;;;;;;;5.28;3.67;;;;;;;9.73;67.04;102581.53;5105742;28;20134;-60
2023/01/03 01:58:48;;;;;;;5.78;3.13;;;;;;;9.71;66.71;102588.94;5107249;28;20044;-64
2023/01/03 02:01:19;;;;;;;6.65;3.45;;;;;;;9.69;66.60;102582.88;5100997;28;20487;-61
2023/01/03 02:03:54;;;;;;;7.25;4.15;;;;;;;9.60;66.76;102567.00;5103074;28;20409;-63
2023/01/03 02:06:24;;;;;;;5.32;3.35;;;;;;;9.67;66.79;102598.34;5102197;28;20063;-63
2023/01/03 02:08:53;;;;;;;8.48;3.97;;;;;;;9.66;66.67;102595.81;5103696;28;20036;-64
2023/01/03 02:11:33;;;;;;;6.93;3.40;;;;;;;9.65;66.65;102596.84;5099517;28;20055;-64
2023/01/03 02:14:14;;;;;;;5.45;3.40;;;;;;;9.61;66.69;102588.28;5101305;28;20111;-63
2023/01/03 02:17:00;;;;;;;7.72;3.90;;;;;;;9.62;66.26;102594.50;5094827;28;20048;-64
2023/01/03 02:19:57;;;;;;;6.68;3.25;;;;;;;9.59;66.29;102584.94;5099305;28;20048;-64
2023/01/03 02:22:46;;;;;;;8.60;4.63;;;;;;;9.58;66.80;102591.31;5074456;28;20052;-64
2023/01/03 02:26:05;;;;;;;14.80;4.18;;;;;;;9.58;66.65;102598.53;5098903;28;20052;-63
2023/01/03 02:29:01;;;;;;;7.80;3.40;;;;;;;9.56;66.26;102595.19;5071527;28;20119;-64
2023/01/03 02:31:38;;;;;;;6.00;3.63;;;;;;;9.54;66.60;102603.41;5101096;28;20044;-62
2023/01/03 02:34:20;;;;;;;6.07;3.50;;;;;;;9.54;66.15;102606.09;5104926;28;20040;-64
2023/01/03 02:36:59;;;;;;;6.70;3.58;;;;;;;9.53;66.13;102598.22;5107298;28;20048;-64
2023/01/03 02:39:31;;;;;;;7.50;3.60;;;;;;;9.52;66.14;102604.59;5106929;28;20519;-64
2023/01/03 02:44:58;;;;;;;6.35;3.50;;;;;;;9.50;66.51;102598.56;5104111;28;20044;-64
2023/01/03 02:47:37;;;;;;;6.25;3.60;;;;;;;9.48;66.39;102600.56;5102083;28;20050;-53
2023/01/03 02:50:09;;;;;;;6.07;3.33;;;;;;;9.47;66.42;102602.41;5098634;28;20108;-63
2023/01/03 02:52:39;;;;;;;7.03;3.45;;;;;;;9.46;66.30;102600.75;5107042;28;20082;-64
2023/01/03 02:55:13;;;;;;;7.10;4.13;;;;;;;9.35;66.14;102579.63;5100718;28;20127;-63
2023/01/03 02:57:46;;;;;;;6.28;3.47;;;;;;;9.41;66.25;102592.38;5112130;28;20513;-62
2023/01/03 03:00:18;;;;;;;9.40;4.30;;;;;;;9.42;66.38;102592.19;5100028;28;20393;-64
2023/01/03 03:02:50;;;;;;;6.57;3.55;;;;;;;9.40;66.30;102580.81;5099168;28;20044;-63
2023/01/03 03:05:24;;;;;;;5.75;3.50;;;;;;;9.40;65.99;102593.38;5098367;28;20085;-64
2023/01/03 03:07:52;;;;;;;7.43;3.90;;;;;;;9.38;66.02;102592.72;5103624;28;20112;-61
2023/01/03 03:13:15;;;;;;;7.50;3.38;;;;;;;9.37;65.91;102593.72;5098646;28;20044;-63
2023/01/03 03:15:54;;;;;;;9.95;3.63;;;;;;;9.37;66.26;102593.72;5105268;28;20055;-63
2023/01/03 03:18:31;;;;;;;7.07;3.40;;;;;;;9.36;66.11;102597.41;5097804;28;20135;-63
2023/01/03 03:26:37;;;;;;;;;;;;;;;9.32;66.00;102585.34;5105735;28;20063;-64
2023/01/03 03:29:09;;;;;;;9.07;4.20;;;;;;;9.31;65.69;102581.81;5103989;28;20017;-63
2023/01/03 03:31:41;;;;;;;7.35;3.88;;;;;;;9.31;65.71;102584.50;5103426;28;20131;-63
2023/01/03 03:34:13;;;;;;;5.93;3.72;;;;;;;9.29;65.83;102588.38;5105977;28;20048;-64
2023/01/03 03:36:48;;;;;;;7.00;4.05;;;;;;;9.27;65.45;102588.53;5101557;28;20063;-64
2023/01/03 03:45:09;;;;;;;6.63;3.70;;;;;;;9.25;65.42;102590.56;5103707;28;20134;-63
2023/01/03 03:47:44;;;;;;;8.43;3.58;;;;;;;9.14;65.85;102575.66;5103097;28;20312;-63
2023/01/03 03:50:21;;;;;;;8.18;4.25;;;;;;;9.19;65.66;102588.56;5105098;28;20111;-63
2023/01/03 03:52:54;;;;;;;8.10;3.45;;;;;;;9.22;66.13;102593.56;5096660;28;20113;-64
2023/01/03 03:55:25;;;;;;;6.97;3.72;;;;;;;9.21;66.03;102597.28;5105774;28;20055;-63
2023/01/03 03:57:59;;;;;;;7.22;3.78;;;;;;;9.18;66.03;102589.56;5105378;28;20139;-64
2023/01/03 04:00:32;;;;;;;6.88;4.20;;;;;;;9.09;65.69;102577.16;5090459;28;20044;-64
2023/01/03 04:03:02;;;;;;;7.18;3.95;;;;;;;9.17;65.47;102592.41;5095995;28;20047;-63
2023/01/03 04:05:36;;;;;;;8.93;4.20;;;;;;;9.17;65.93;102587.06;5104455;28;20044;-63
2023/01/03 04:08:04;;;;;;;6.32;4.22;;;;;;;9.14;65.57;102591.75;5102770;28;20067;-63
2023/01/03 04:10:32;;;;;;;7.85;3.88;;;;;;;9.04;66.12;102574.16;5104803;28;20048;-61
2023/01/03 04:13:05;;;;;;;9.85;4.68;;;;;;;9.13;65.59;102594.59;5104859;28;20044;-63
2023/01/03 04:15:33;;;;;;;7.30;4.15;;;;;;;9.12;65.25;102595.59;5103684;28;20425;-64
2023/01/03 04:18:01;;;;;;;8.40;4.50;;;;;;;9.11;65.81;102597.44;5099664;28;20071;-60
2023/01/03 04:20:29;;;;;;;9.73;4.40;;;;;;;9.10;65.65;102592.25;5104466;28;20146;-64
2023/01/03 04:22:58;;;;;;;8.38;4.00;;;;;;;9.10;66.04;102595.78;5098640;28;20108;-64
2023/01/03 04:25:26;;;;;;;6.07;4.15;;;;;;;9.08;65.95;102596.94;5102979;28;20052;-64
2023/01/03 04:27:54;;;;;;;8.10;4.10;;;;;;;9.07;65.87;102593.44;5104716;28;20062;-64
2023/01/03 04:30:22;;;;;;;8.35;4.28;;;;;;;9.07;65.91;102590.75;5101432;28;20044;-64
2023/01/03 04:32:50;;;;;;;9.77;4.05;;;;;;;9.06;65.52;102585.56;5103711;28;20055;-64
2023/01/03 04:35:17;;;;;;;8.35;3.88;;;;;;;9.07;66.20;102589.91;5104596;28;20135;-64
2023/01/03 04:37:45;;;;;;;8.30;4.05;;;;;;;9.05;65.74;102594.59;5095099;28;20444;-58
2023/01/03 04:40:15;;;;;;;9.98;4.80;;;;;;;9.04;65.52;102591.09;5103571;28;20054;-64
2023/01/03 04:45:28;;;;;;;7.63;4.30;;;;;;;9.01;65.50;102599.47;5093614;28;20048;-61
2023/01/03 04:47:56;;;;;;;8.23;4.13;;;;;;;9.01;65.43;102604.84;5103648;28;20036;-63
2023/01/03 04:50:24;;;;;;;9.43;3.90;;;;;;;9.00;65.50;102603.16;5100197;28;20052;-60
2023/01/03 04:52:52;;;;;;;6.68;3.92;;;;;;;9.00;65.93;102599.63;5099482;28;20055;-64
2023/01/03 04:55:21;;;;;;;5.97;3.50;;;;;;;8.97;66.13;102591.94;5093978;28;20452;-63
2023/01/03 04:57:49;;;;;;;8.27;3.60;;;;;;;8.97;65.94;102599.97;5099734;28;20040;-64
2023/01/03 05:00:17;;;;;;;6.47;3.42;;;;;;;8.96;65.97;102591.09;5100256;28;20048;-64
2023/01/03 05:02:45;;;;;;;9.07;3.65;;;;;;;8.94;66.05;102585.06;5100130;28;20128;-63
2023/01/03 05:05:13;;;;;;;6.97;3.35;;;;;;;8.95;66.34;102596.63;5104745;28;20115;-64
2023/01/03 05:07:41;;;;;;;6.22;3.40;;;;;;;8.94;66.47;102595.78;5103165;28;20036;-64
2023/01/03 05:10:09;;;;;;;8.13;4.00;;;;;;;8.94;65.88;102586.91;5104713;28;20556;-64
2023/01/03 05:12:38;;;;;;;10.52;4.68;;;;;;;8.96;65.89;102591.09;5095841;28;20056;-64
2023/01/03 05:15:07;;;;;;;6.07;3.30;;;;;;;8.94;66.47;102590.41;5102438;28;20056;-63
2023/01/03 05:17:35;;;;;;;9.30;4.05;;;;;;;8.89;66.61;102579.38;5100894;28;20207;-63
2023/01/03 05:25:51;;;;;;;7.38;3.30;;;;;;;8.96;65.90;102579.53;5101740;28;20063;-63
2023/01/03 05:28:23;;;;;;;5.72;3.40;;;;;;;8.86;66.26;102565.47;5093942;28;20070;-62
2023/01/03 05:30:51;;;;;;;7.40;4.00;;;;;;;8.94;66.60;102576.19;5101555;28;20052;-63
2023/01/03 05:33:19;;;;;;;4.75;3.45;;;;;;;8.93;66.78;102571.81;5103607;28;20071;-63
2023/01/03 05:35:47;;;;;;;5.50;3.00;;;;;;;8.93;66.56;102563.78;5103133;28;20086;-64
2023/01/03 05:38:15;;;;;;;7.47;3.72;;;;;;;8.92;66.51;102564.78;5101350;28;20469;-63
2023/01/03 05:40:43;;;;;;;7.70;3.85;;;;;;;8.92;66.82;102559.41;5103812;28;20112;-64
2023/01/03 05:43:11;;;;;;;5.68;3.38;;;;;;;8.92;66.78;102562.09;5095386;28;20052;-64
2023/01/03 05:45:41;;;;;;;5.10;3.33;;;;;;;8.92;66.63;102556.75;5096804;28;20118;-64
2023/01/03 05:48:09;;;;;;;6.35;3.30;;;;;;;8.91;66.10;102572.00;5103574;28;20059;-64
2023/01/03 05:50:37;;;;;;;5.90;3.65;;;;;;;8.90;66.22;102572.16;5104849;28;20377;-64
2023/01/03 05:53:05;;;;;;;9.63;3.67;;;;;;;8.89;66.32;102562.44;5097441;28;20052;-63
2023/01/03 05:55:35;;;;;;;7.07;3.70;;;;;;;8.90;66.89;102569.47;5101395;28;20047;-64
2023/01/03 05:58:04;;;;;;;6.28;3.63;;;;;;;8.88;66.44;102561.59;5109909;28;20048;-64
2023/01/03 06:00:32;;;;;;;6.13;3.25;;;;;;;8.88;66.15;102561.59;5101940;28;20127;-62
2023/01/03 06:03:01;;;;;;;8.57;4.15;;;;;;;8.88;66.82;102564.28;5092971;28;20557;-64
2023/01/03 06:05:29;;;;;;;6.30;3.63;;;;;;;8.87;66.60;102569.81;5092928;28;20045;-64
2023/01/03 06:07:59;;;;;;;6.55;3.83;;;;;;;8.89;67.10;102565.13;5092037;28;20036;-63
2023/01/03 06:10:27;;;;;;;7.32;3.40;;;;;;;8.88;67.09;102556.25;5093248;28;20131;-61
2023/01/03 06:12:55;;;;;;;5.07;3.30;;;;;;;8.88;66.25;102550.03;5104054;28;20040;-63
2023/01/03 06:15:23;;;;;;;5.90;3.38;;;;;;;8.87;66.91;102553.72;5100840;28;20055;-63
2023/01/03 06:17:53;;;;;;;5.18;3.42;;;;;;;8.87;67.18;102548.38;5107424;28;20068;-64
2023/01/03 06:20:23;;;;;;;8.43;3.35;;;;;;;8.87;66.45;102548.38;5106389;28;20054;-60
2023/01/03 06:22:52;;;;;;;4.97;3.03;;;;;;;8.86;67.10;102550.22;5100244;28;20079;-64
2023/01/03 06:25:21;;;;;;;5.28;3.22;;;;;;;8.87;66.76;102543.84;5107137;28;20048;-64
2023/01/03 06:27:49;;;;;;;4.93;2.80;;;;;;;8.86;66.81;102539.47;5106146;28;20043;-60
2023/01/03 06:30:17;;;;;;;5.60;3.10;;;;;;;8.86;66.85;102539.47;5100990;28;20050;-64
2023/01/03 06:32:45;;;;;;;5.07;2.85;;;;;;;8.88;67.44;102544.69;5106370;28;20047;-65
2023/01/03 06:35:13;;;;;;;6.93;3.38;;;;;;;8.86;67.10;102544.84;5105275;28;20145;-66
2023/01/03 06:37:42;;;;;;;5.45;2.83;;;;;;;8.86;66.99;102542.16;5106201;28;20090;-61
2023/01/03 06:40:11;;;;;;;6.63;3.10;;;;;;;8.85;66.65;102548.53;5106767;28;20478;-65
2023/01/03 06:42:41;;;;;;;6.82;3.15;;;;;;;8.88;66.92;102558.09;5104823;28;20504;-67
2023/01/03 06:53:35;;;;;;;5.03;2.55;;;;;;;8.89;66.59;102544.50;5095701;28;20107;-64
2023/01/03 06:56:03;;;;;;;5.15;2.85;;;;;;;8.92;66.82;102535.28;5098357;28;20071;-65
2023/01/03 06:58:31;;;;;;;6.18;3.25;;;;;;;8.92;67.34;102520.03;5115040;28;20048;-65
2023/01/03 07:01:02;;;;;;;7.72;3.60;;;;;;;8.93;67.49;102515.50;5105599;28;20044;-69
2023/01/03 07:03:30;;;;;;;6.18;3.30;;;;;;;8.91;66.85;102530.94;5106186;28;20058;-67
2023/01/03 07:05:58;;;;;;;5.68;3.38;;;;;;;8.92;66.93;102537.97;5098165;28;20045;-65
2023/01/03 07:08:25;;;;;;;9.82;2.92;;;;;;;8.94;67.11;102546.69;5096017;28;20048;-66
2023/01/03 07:10:55;;;;;;;4.50;3.13;;;;;;;8.93;67.21;102548.53;5105866;28;20051;-66
2023/01/03 07:16:13;;;;;;;8.68;3.58;;;;;;;8.94;67.44;102563.59;5095699;28;20132;-66
2023/01/03 07:18:41;;;;;;;9.02;3.47;;;;;;;8.91;67.81;102558.59;5105493;28;20067;-66
2023/01/03 07:21:13;;;;;;;4.63;2.75;;;;;;;8.93;67.58;102567.28;5106017;28;20048;-65
2023/01/03 07:23:41;;;;;;;5.25;3.13;;;;;;;8.94;68.05;102568.13;5098912;28;20138;-66
2023/01/03 07:26:11;;;;;;;7.78;3.22;;;;;;;8.92;67.60;102564.78;5106090;28;20072;-66
2023/01/03 07:28:39;;;;;;;4.97;3.10;;;;;;;8.91;67.24;102569.31;5105644;28;20040;-66
2023/01/03 07:31:07;;;;;;;5.43;3.33;;;;;;;8.90;67.96;102561.44;5096503;28;20056;-66
2023/01/03 07:33:38;;;;;;;7.25;3.10;;;;;;;8.91;67.20;102566.63;5104074;28;20090;-66
2023/01/03 07:36:08;;;;;;;5.05;3.35;;;;;;;8.91;67.84;102561.25;5106419;28;20044;-67
2023/01/03 07:38:40;;;;;;;4.97;3.20;;;;;;;8.92;67.54;102554.06;5090456;28;20048;-64
2023/01/03 07:41:09;;;;;;;4.53;2.90;;;;;;;8.93;67.29;102558.41;5105709;28;20143;-64
2023/01/03 07:43:40;;;;;;;5.22;3.35;;;;;;;8.93;67.73;102556.56;4745966;28;9999813;-61
2023/01/03 07:46:10;;;;;;;5.90;3.28;;;;;;;8.94;67.97;102578.84;5101174;28;20080;-65
2023/01/03 07:48:39;;;;;;;5.22;3.40;;;;;;;8.91;67.77;102577.34;5100714;28;20054;-65
2023/01/03 07:51:08;;;;;;;7.45;3.40;;;;;;;8.91;67.88;102571.16;5100722;28;20070;-65
2023/01/03 07:53:36;;;;;;;5.53;3.40;;;;;;;8.92;67.45;102584.38;5092841;28;20781;-65
2023/01/03 07:56:06;;;;;;;7.72;3.65;;;;;;;8.94;67.48;102573.50;5096561;28;20075;-63
2023/01/03 07:58:43;;;;;;;5.88;3.33;;;;;;;8.94;67.46;102579.69;5087556;28;20045;-64
2023/01/03 08:01:13;;;;;;;5.68;3.28;;;;;;;8.93;67.61;102575.34;5098374;28;20115;-65
2023/01/03 08:03:41;;;;;;;6.65;3.38;;;;;;;8.93;68.10;102578.03;5098084;28;20136;-66
2023/01/03 08:06:12;;;;;;;6.18;3.92;;;;;;;8.92;67.45;102587.06;5099153;28;20048;-65
2023/01/03 08:08:40;;;;;;;7.55;4.03;;;;;;;8.90;67.88;102590.94;5095451;28;20108;-64
2023/01/03 08:13:59;;;;;;;5.55;3.38;;;;;;;8.90;68.06;102591.75;5095494;28;20056;-65
2023/01/03 08:16:27;;;;;;;4.53;3.30;;;;;;;8.90;68.46;102599.81;5095603;28;20372;-64
2023/01/03 08:18:55;;;;;;;7.30;4.10;;;;;;;8.91;67.69;102606.84;5100967;28;20472;-65
2023/01/03 08:21:22;;;;;;;6.82;3.90;;;;;;;8.92;68.40;102605.84;5099526;28;20051;-65
2023/01/03 08:23:50;;;;;;;6.15;3.90;;;;;;;8.93;68.60;102602.16;5100799;28;20377;-65
2023/01/03 08:26:19;;;;;;;5.65;3.45;;;;;;;8.93;68.15;102609.34;5104745;28;20103;-65
2023/01/03 08:28:47;;;;;;;6.68;3.35;;;;;;;8.92;67.87;102599.63;5103538;28;20052;-63
2023/01/03 08:31:19;;;;;;;8.73;3.65;;;;;;;8.94;67.86;102606.50;5101181;28;20075;-64
2023/01/03 08:33:50;;;;;;;8.25;3.70;;;;;;;8.94;68.50;102608.34;5104678;28;20056;-63
2023/01/03 08:36:19;;;;;;;7.50;4.30;;;;;;;8.93;68.05;102612.88;5105109;28;20052;-65
2023/01/03 08:38:50;;;;;;;6.78;3.95;;;;;;;8.93;67.91;102606.69;5102261;28;20064;-66
2023/01/03 08:41:22;;;;;;;5.43;3.95;;;;;;;8.92;67.96;102608.53;5105600;28;20044;-66
2023/01/03 08:43:50;;;;;;;5.97;3.75;;;;;;;8.93;68.36;102606.69;5101903;28;20147;-66
2023/01/03 08:46:20;;;;;;;8.77;4.45;;;;;;;8.92;68.27;102613.88;5094075;28;20067;-66
2023/01/03 08:48:48;;;;;;;6.35;3.75;;;;;;;9.01;68.00;102617.41;5104760;28;20058;-66
2023/01/03 08:51:16;;;;;;;9.13;4.50;;;;;;;9.16;67.44;102615.72;5105119;28;20075;-66
2023/01/03 08:53:44;;;;;;;7.05;3.55;;;;;;;9.34;67.36;102610.16;5099821;28;20076;-66
2023/01/03 08:56:12;;;;;;;5.93;3.90;;;;;;;9.50;66.86;102620.03;5107977;28;20072;-66
2023/01/03 08:58:40;;;;;;;10.63;4.57;;;;;;;9.68;65.80;102620.66;5108004;28;20493;-66
2023/01/03 09:01:10;;;;;;;4.22;2.97;;;;;;;9.84;66.22;102630.50;5103821;28;20078;-65
2023/01/03 09:03:40;;;;;;;5.30;3.63;;;;;;;10.00;65.43;102630.44;5104228;28;20040;-65
2023/01/03 09:06:08;;;;;;;5.07;3.60;;;;;;;10.17;64.31;102631.22;5091493;28;20048;-66
2023/01/03 09:08:36;;;;;;;5.90;3.78;;;;;;;10.32;64.08;102637.53;5102554;28;20040;-65
2023/01/03 09:11:05;;;;;;;6.20;3.75;;;;;;;10.48;63.66;102631.19;5104729;28;20047;-65
2023/01/03 09:13:33;;;;;;;6.60;3.60;;;;;;;10.58;63.30;102626.44;5104222;28;20084;-65
2023/01/03 09:16:01;;;;;;;6.50;4.07;;;;;;;10.71;63.00;102632.91;5103164;28;20107;-59
2023/01/03 09:18:29;;;;;;;5.45;3.30;;;;;;;10.81;62.53;102638.03;5103388;28;20044;-65
2023/01/03 09:20:58;;;;;;;7.50;3.78;;;;;;;10.87;62.54;102629.25;5104755;28;20108;-66
2023/01/03 09:23:26;;;;;;;7.05;3.70;;;;;;;10.94;62.30;102632.88;5103478;28;20051;-66
2023/01/03 09:25:54;;;;;;;5.30;3.10;;;;;;;10.96;62.27;102638.94;5104376;28;20122;-66
2023/01/03 09:28:22;;;;;;;5.45;3.42;;;;;;;10.99;62.11;102643.09;5096230;28;20115;-65
2023/01/03 09:30:50;;;;;;;6.40;3.28;;;;;;;11.01;62.23;102639.22;5102893;28;20049;-66
2023/01/03 09:33:18;;;;;;;5.82;3.08;;;;;;;11.05;62.09;102631.63;5104060;28;20420;-62
2023/01/03 09:35:46;;;;;;;6.50;4.07;;;;;;;11.07;62.05;102630.44;5101770;28;20052;-65
2023/01/03 09:38:15;;;;;;;5.45;3.28;;;;;;;11.07;62.05;102630.44;5104172;28;20052;-66
2023/01/03 09:40:45;;;;;;;4.88;2.97;;;;;;;11.08;62.12;102632.09;5094517;28;20072;-66
2023/01/03 09:43:16;;;;;;;9.20;3.70;;;;;;;11.13;61.93;102628.88;5104806;28;20051;-65
2023/01/03 09:45:53;;;;;;;5.43;2.90;;;;;;;11.03;62.39;102617.50;5106722;28;20100;-61
2023/01/03 09:48:28;;;;;;;8.30;3.15;;;;;;;11.02;62.50;102645.44;5105766;28;20532;-65
2023/01/03 09:50:56;;;;;;;6.63;3.38;;;;;;;10.75;63.04;102636.91;5108402;28;20051;-65
2023/01/03 10:05:29;;;;;;;5.95;3.40;;;;;;;10.02;66.44;102640.00;5099761;28;20219;-65
2023/01/03 10:08:17;;;;;;;6.90;3.63;;;;;;;9.94;66.42;102637.34;5095721;28;20139;-65
2023/01/03 10:10:57;;;;;;;5.40;3.35;;;;;;;9.88;66.79;102634.50;5106083;28;20447;-65
2023/01/03 10:13:40;;;;;;;5.32;3.30;;;;;;;9.84;66.67;102627.81;5108071;28;20048;-65
2023/01/03 10:16:17;;;;;;;6.93;3.83;;;;;;;9.83;66.93;102629.66;5107389;28;20358;-66
2023/01/03 10:19:03;;;;;;;5.57;3.42;;;;;;;9.79;67.69;102628.34;5104528;28;20078;-67
2023/01/03 10:21:41;;;;;;;5.97;3.38;;;;;;;9.75;67.77;102632.38;5107028;28;20412;-66
2023/01/03 10:24:18;;;;;;;6.35;3.53;;;;;;;9.72;67.50;102635.41;5097488;28;20381;-67
2023/01/03 10:26:49;;;;;;;6.88;3.35;;;;;;;9.68;67.90;102637.59;5106220;28;20064;-59
2023/01/03 10:29:18;;;;;;;5.03;3.33;;;;;;;9.65;68.18;102639.78;5106131;28;20048;-56
2023/01/03 10:32:03;;;;;;;5.35;3.75;;;;;;;9.63;67.95;102631.06;5096988;28;20044;-66
2023/01/03 10:34:30;;;;;;;6.88;3.28;;;;;;;9.61;68.00;102628.56;5107649;28;20108;-66
2023/01/03 10:36:58;;;;;;;4.90;2.90;;;;;;;9.59;67.95;102638.63;5091044;28;20116;-66
2023/01/03 10:39:31;;;;;;;3.97;2.58;;;;;;;9.60;68.09;102631.41;5096195;28;20128;-66
2023/01/03 10:42:00;;;;;;;8.73;3.30;;;;;;;9.59;68.13;102635.09;5099025;28;20054;-66
2023/01/03 10:44:30;;;;;;;6.18;3.00;;;;;;;9.57;68.25;102631.75;5104776;28;20044;-65
2023/01/03 10:47:07;;;;;;;7.43;3.97;;;;;;;9.56;68.97;102633.59;5107764;28;20051;-57
2023/01/03 10:49:36;;;;;;;5.43;3.50;;;;;;;9.56;68.79;102635.44;5103228;28;20059;-66
2023/01/03 10:52:12;;;;;;;6.15;3.35;;;;;;;9.54;68.86;102629.41;5107371;28;20048;-66
2023/01/03 10:54:48;;;;;;;6.60;3.17;;;;;;;9.52;68.46;102621.53;5105397;28;20048;-66
2023/01/03 10:57:42;;;;;;;;;;;;;;;9.52;68.69;102634.13;5093887;28;20055;-66
2023/01/03 11:00:27;;;;;;;4.90;2.70;;;;;;;9.50;68.86;102620.88;5095456;28;19946;-66
2023/01/03 11:03:01;;;;;;;7.13;3.03;;;;;;;9.51;68.91;102625.22;5105055;28;20149;-66
2023/01/03 11:05:29;;;;;;;4.90;2.95;;;;;;;9.50;69.43;102625.41;5107112;28;20052;-66
2023/01/03 11:08:00;;;;;;;5.28;2.53;;;;;;;9.50;68.94;102633.44;5093537;28;20078;-66
2023/01/03 11:10:37;;;;;;;6.18;3.28;;;;;;;9.50;69.25;102628.06;5103439;28;20100;-65
2023/01/03 11:13:21;;;;;;;;;;;;;;;9.50;69.02;102622.72;5106510;28;20090;-59
2023/01/03 11:15:54;;;;;;;6.78;3.13;;;;;;;9.49;69.20;102613.81;5098774;28;19943;-66
2023/01/03 11:18:22;;;;;;;6.45;2.92;;;;;;;9.49;69.45;102619.19;5099078;28;20074;-66
2023/01/03 11:20:55;;;;;;;4.97;3.20;;;;;;;9.51;69.45;102613.66;5106674;28;20368;-66
2023/01/03 11:23:33;;;;;;;5.30;2.92;;;;;;;9.51;69.24;102611.81;5099863;28;20102;-65
2023/01/03 11:26:11;;;;;;;5.18;2.95;;;;;;;9.50;69.66;102607.44;5105451;28;20134;-66
2023/01/03 11:29:23;;;;;;;4.07;2.42;;;;;;;9.51;69.28;102617.16;5105811;28;20111;-66
2023/01/03 11:31:57;;;;;;;7.70;3.15;;;;;;;9.52;69.50;102612.63;5002597;28;20054;-66
2023/01/03 11:34:42;;;;;;;8.77;2.92;;;;;;;9.54;69.28;102610.63;5004202;28;20054;-66
2023/01/03 11:37:39;;;;;;;6.82;2.70;;;;;;;9.54;69.49;102616.81;4994071;28;20086;-55
2023/01/03 11:40:16;;;;;;;5.50;2.90;;;;;;;9.52;69.44;102610.78;4995227;28;20088;-64
2023/01/03 11:42:58;;;;;;;4.10;2.70;;;;;;;9.54;69.40;102600.72;4990688;28;20046;-65
2023/01/03 11:45:48;;;;;;;4.90;2.83;;;;;;;9.55;69.43;102596.19;5002677;28;20121;-55
2023/01/03 11:48:34;;;;;;;8.70;3.83;;;;;;;9.55;70.10;102597.03;4992037;28;20046;-66
2023/01/03 11:51:13;;;;;;;6.07;2.92;;;;;;;9.56;69.79;102590.66;5003477;28;20050;-65
2023/01/03 11:53:53;;;;;;;5.53;2.97;;;;;;;9.56;69.93;102596.03;4994242;28;20069;-66
2023/01/03 11:56:27;;;;;;;7.50;3.25;;;;;;;9.55;69.83;102607.75;5002134;28;20089;-64
2023/01/03 11:59:27;;;;;;;6.28;3.38;;;;;;;9.54;70.13;102595.34;4996739;28;20078;-66
2023/01/03 12:02:31;;;;;;;11.50;4.50;;;;;;;9.53;70.22;102599.06;5005264;28;20688;-58
2023/01/03 12:05:12;;;;;;;6.18;3.40;;;;;;;9.53;69.75;102592.84;5007510;28;20146;-66
2023/01/03 12:07:53;;;;;;;7.80;3.10;;;;;;;9.54;70.26;102590.00;5095229;28;20071;-65
2023/01/03 12:10:28;;;;;;;8.02;3.60;;;;;;;9.54;70.16;102579.25;5105028;28;20083;-59
2023/01/03 12:13:15;;;;;;;8.30;3.85;;;;;;;9.54;69.80;102581.09;5098624;28;20556;-66
2023/01/03 12:15:45;;;;;;;;;;;;;;;9.53;70.10;102574.91;5103833;28;20087;-65
2023/01/03 12:18:25;;;;;;;8.93;3.75;;;;;;;9.52;70.30;102577.75;5104617;28;19970;-65
2023/01/03 12:20:58;;;;;;;8.90;4.18;;;;;;;9.53;69.86;102574.91;5093014;28;20048;-65
2023/01/03 12:23:37;;;;;;;8.35;4.15;;;;;;;9.52;69.80;102564.34;5097445;28;20055;-65
2023/01/03 12:26:08;;;;;;;11.93;4.15;;;;;;;9.52;70.20;102558.97;5104694;28;20044;-67
2023/01/03 12:28:47;;;;;;;10.52;3.83;;;;;;;9.54;69.78;102554.25;5100689;28;20052;-66
2023/01/03 12:31:24;;;;;;;8.15;3.80;;;;;;;9.55;70.26;102550.56;5095708;28;20131;-65
2023/01/03 12:34:11;;;;;;;6.70;2.95;;;;;;;9.56;70.28;102563.81;5093632;28;20052;-65
2023/01/03 12:36:45;;;;;;;7.35;3.90;;;;;;;9.57;70.24;102554.75;5104116;28;20070;-65
2023/01/03 12:39:37;;;;;;;7.68;4.15;;;;;;;9.57;70.26;102552.06;5104897;28;20050;-65
2023/01/03 12:42:14;;;;;;;8.63;3.63;;;;;;;9.59;70.04;102543.84;5097081;28;20059;-65
2023/01/03 12:44:44;;;;;;;;;;;;;;;9.60;70.30;102553.56;5095375;28;20148;-65
2023/01/03 12:47:28;;;;;;;7.45;3.35;;;;;;;9.59;70.58;102550.03;5104736;28;19938;-65
2023/01/03 12:50:03;;;;;;;4.80;2.72;;;;;;;9.58;69.91;102551.06;5104943;28;20068;-64
2023/01/03 12:52:34;;;;;;;5.78;3.00;;;;;;;9.59;70.13;102547.38;5094908;28;20155;-64